createdAt,value
2023-05-19T00:01:50.240Z,75.41
2023-05-19T00:04:52.202Z,75.46
2023-05-19T00:07:58.759Z,75.60
2023-05-19T00:11:01.895Z,75.42
2023-05-19T00:14:06.146Z,75.80
2023-05-19T00:17:08.642Z,75.63
2023-05-19T00:20:12.227Z,75.46
2023-05-19T00:23:13.945Z,75.66
2023-05-19T00:26:15.773Z,75.79
2023-05-19T00:29:26.612Z,75.82
2023-05-19T00:32:28.422Z,75.75
2023-05-19T00:35:30.406Z,75.81
2023-05-19T00:38:35.381Z,75.86
2023-05-19T00:41:37.216Z,75.61
2023-05-19T00:44:41.820Z,75.52
2023-05-19T00:47:43.898Z,75.86
2023-05-19T00:50:46.214Z,75.42
2023-05-19T00:53:51.089Z,75.37
2023-05-19T00:56:54.607Z,75.62
2023-05-19T00:59:56.595Z,75.64
2023-05-19T01:02:58.614Z,75.67
2023-05-19T01:06:05.083Z,75.53
2023-05-19T01:09:07.767Z,75.64
2023-05-19T01:12:09.741Z,75.62
2023-05-19T01:15:12.218Z,75.80
2023-05-19T01:18:24.774Z,75.33
2023-05-19T01:21:44.458Z,75.88
2023-05-19T01:24:58.448Z,75.89
2023-05-19T01:28:06.514Z,76.05
2023-05-19T01:31:10.041Z,75.97
2023-05-19T01:34:14.690Z,75.67
2023-05-19T01:37:17.894Z,75.80
2023-05-19T01:40:23.000Z,75.93
2023-05-19T01:43:27.570Z,75.75
2023-05-19T01:46:29.391Z,76.00
2023-05-19T01:49:31.271Z,75.70
2023-05-19T01:52:33.158Z,75.88
2023-05-19T01:55:45.541Z,76.00
2023-05-19T01:58:53.046Z,75.82
2023-05-19T02:02:01.168Z,75.72
2023-05-19T02:05:40.747Z,76.02
2023-05-19T02:08:51.056Z,76.02
2023-05-19T02:12:01.174Z,75.83
2023-05-19T02:15:26.118Z,76.02
2023-05-19T02:18:30.024Z,76.16
2023-05-19T02:21:31.957Z,76.03
2023-05-19T02:24:33.778Z,76.15
2023-05-19T02:27:37.397Z,76.43
2023-05-19T02:30:39.126Z,76.18
2023-05-19T02:33:41.373Z,76.19
2023-05-19T02:36:43.756Z,76.38
2023-05-19T02:39:45.570Z,76.43
2023-05-19T02:42:47.440Z,76.82
2023-05-19T02:45:49.242Z,76.70
2023-05-19T02:48:51.520Z,76.71
2023-05-19T02:51:53.436Z,76.92
2023-05-19T02:54:55.111Z,76.60
2023-05-19T02:57:56.892Z,76.58
2023-05-19T03:00:58.665Z,76.69
2023-05-19T03:04:00.740Z,76.63
2023-05-19T03:07:03.361Z,76.73
2023-05-19T03:10:06.818Z,76.88
2023-05-19T03:13:08.601Z,76.83
2023-05-19T03:16:10.434Z,76.59
2023-05-19T03:19:12.214Z,76.85
2023-05-19T03:22:14.003Z,76.35
2023-05-19T03:25:15.844Z,76.52
2023-05-19T03:28:17.682Z,76.30
2023-05-19T03:31:19.487Z,76.24
2023-05-19T03:34:22.483Z,76.09
2023-05-19T03:37:25.290Z,75.91
2023-05-19T03:40:27.188Z,75.77
2023-05-19T03:43:35.901Z,75.89
2023-05-19T03:46:39.965Z,75.74
2023-05-19T03:50:01.235Z,75.56
2023-05-19T03:53:26.609Z,75.47
2023-05-19T03:56:28.832Z,75.43
2023-05-19T03:59:31.397Z,75.36
2023-05-19T04:02:33.301Z,75.15
2023-05-19T04:05:35.241Z,75.43
2023-05-19T04:08:36.977Z,75.32
2023-05-19T04:11:39.787Z,75.04
2023-05-19T04:14:41.580Z,74.98
2023-05-19T04:17:45.226Z,74.95
2023-05-19T04:20:47.206Z,74.99
2023-05-19T04:23:49.034Z,74.89
2023-05-19T04:26:50.993Z,74.57
2023-05-19T04:29:54.824Z,74.33
2023-05-19T04:32:58.236Z,74.09
2023-05-19T04:36:05.525Z,73.75
2023-05-19T04:39:10.089Z,73.79
2023-05-19T04:42:13.900Z,73.38
2023-05-19T04:45:15.739Z,73.31
2023-05-19T04:48:24.361Z,72.90
2023-05-19T04:51:30.273Z,72.96
2023-05-19T04:54:35.735Z,72.81
2023-05-19T04:57:38.935Z,72.70
2023-05-19T05:00:41.965Z,72.48
2023-05-19T05:03:44.660Z,72.29
2023-05-19T05:06:48.145Z,71.86
2023-05-19T05:09:50.505Z,71.83
2023-05-19T05:12:52.701Z,71.58
2023-05-19T05:15:56.247Z,70.98
2023-05-19T05:18:58.376Z,70.01
2023-05-19T05:22:00.664Z,69.16
2023-05-19T05:25:03.444Z,68.16
2023-05-19T05:28:06.004Z,66.80
2023-05-19T05:31:10.143Z,66.04
2023-05-19T05:34:12.402Z,65.29
2023-05-19T05:37:15.508Z,64.80
2023-05-19T05:40:17.882Z,63.18
2023-05-19T05:43:19.958Z,62.24
2023-05-19T05:46:28.083Z,61.65
2023-05-19T05:49:30.976Z,61.40
2023-05-19T05:52:34.576Z,60.97
2023-05-19T05:55:36.735Z,60.66
2023-05-19T05:58:40.786Z,59.49
2023-05-19T06:01:44.050Z,59.01
2023-05-19T06:04:46.625Z,58.64
2023-05-19T06:07:48.441Z,58.18
2023-05-19T06:10:55.902Z,57.62
2023-05-19T06:13:58.075Z,56.96
2023-05-19T06:17:26.293Z,56.58
2023-05-19T06:20:28.111Z,56.16
2023-05-19T06:23:31.313Z,55.87
2023-05-19T06:26:33.166Z,55.75
2023-05-19T06:29:35.646Z,55.21
2023-05-19T06:32:42.612Z,54.96
2023-05-19T06:35:44.575Z,54.70
2023-05-19T06:38:46.454Z,54.73
2023-05-19T06:41:48.552Z,54.33
2023-05-19T06:45:10.869Z,53.94
2023-05-19T06:48:13.476Z,53.33
2023-05-19T06:51:21.669Z,52.95
2023-05-19T06:54:26.828Z,52.66
2023-05-19T06:57:28.781Z,52.51
2023-05-19T07:00:32.453Z,52.56
2023-05-19T07:03:35.858Z,52.40
2023-05-19T07:06:38.523Z,52.10
2023-05-19T07:09:41.035Z,52.34
2023-05-19T07:12:43.230Z,51.81
2023-05-19T07:15:45.277Z,50.99
2023-05-19T07:18:47.587Z,50.61
2023-05-19T07:21:49.700Z,50.16
2023-05-19T07:24:51.526Z,49.95
2023-05-19T07:27:53.413Z,50.16
2023-05-19T07:30:55.243Z,49.88
2023-05-19T07:33:57.865Z,49.30
2023-05-19T07:36:59.575Z,49.83
2023-05-19T07:40:01.393Z,49.46
2023-05-19T07:43:03.218Z,49.38
2023-05-19T07:46:06.185Z,49.17
2023-05-19T07:49:07.998Z,49.46
2023-05-19T07:52:09.736Z,49.21
2023-05-19T07:55:13.635Z,48.78
2023-05-19T07:58:15.709Z,48.15
2023-05-19T08:01:17.446Z,47.81
2023-05-19T08:04:19.261Z,47.76
2023-05-19T08:07:21.125Z,47.64
2023-05-19T08:10:22.898Z,47.71
2023-05-19T08:13:24.710Z,47.61
2023-05-19T08:16:26.889Z,47.69
2023-05-19T08:19:28.814Z,47.79
2023-05-19T08:22:30.784Z,47.95
2023-05-19T08:25:32.799Z,48.33
2023-05-19T08:28:34.605Z,47.68
2023-05-19T08:31:36.656Z,47.43
2023-05-19T08:34:38.389Z,47.62
2023-05-19T08:37:40.996Z,47.70
2023-05-19T08:40:43.533Z,47.60
2023-05-19T08:43:45.541Z,47.46
2023-05-19T08:46:48.141Z,47.38
2023-05-19T08:49:53.108Z,47.36
2023-05-19T08:53:34.092Z,47.39
2023-05-19T08:56:37.805Z,47.44
2023-05-19T08:59:41.131Z,47.61
2023-05-19T09:02:50.776Z,47.72
2023-05-19T09:06:04.147Z,48.19
2023-05-19T09:09:06.348Z,48.06
2023-05-19T09:12:08.327Z,47.74
2023-05-19T09:15:10.894Z,47.14
2023-05-19T09:18:15.174Z,47.12
2023-05-19T09:21:17.681Z,47.31
2023-05-19T09:24:19.792Z,46.99
2023-05-19T09:27:25.333Z,46.70
2023-05-19T09:30:27.181Z,46.27
2023-05-19T09:33:30.062Z,46.07
2023-05-19T09:36:32.274Z,46.16
2023-05-19T09:39:34.502Z,45.56
2023-05-19T09:42:40.736Z,45.71
2023-05-19T09:45:42.760Z,45.42
2023-05-19T09:48:44.966Z,45.34
2023-05-19T09:51:49.053Z,45.26
2023-05-19T09:54:51.949Z,45.08
2023-05-19T09:57:56.609Z,44.27
2023-05-19T10:00:59.521Z,44.65
2023-05-19T10:04:01.900Z,44.26
2023-05-19T10:07:06.207Z,44.75
2023-05-19T10:10:14.095Z,44.79
2023-05-19T10:13:16.686Z,45.19
2023-05-19T10:16:21.870Z,45.33
2023-05-19T10:19:25.633Z,45.39
2023-05-19T10:22:28.521Z,45.81
2023-05-19T10:25:35.490Z,46.17
2023-05-19T10:28:41.160Z,46.28
2023-05-19T10:31:44.650Z,46.32
2023-05-19T10:35:14.112Z,46.66
2023-05-19T10:38:34.120Z,47.12
2023-05-19T10:42:13.922Z,47.19
2023-05-19T10:45:22.441Z,47.44
2023-05-19T10:48:24.630Z,47.34
2023-05-19T10:51:33.361Z,46.36
2023-05-19T10:54:47.429Z,46.16
2023-05-19T10:57:58.605Z,46.35
2023-05-19T11:01:01.600Z,46.25
2023-05-19T11:04:09.361Z,46.34
2023-05-19T11:07:15.589Z,46.16
2023-05-19T11:10:23.424Z,46.16
2023-05-19T11:13:28.526Z,46.05
2023-05-19T11:16:32.531Z,45.61
2023-05-19T11:19:37.172Z,45.97
2023-05-19T11:22:40.088Z,45.92
2023-05-19T11:25:50.014Z,45.32
2023-05-19T11:28:52.169Z,45.84
2023-05-19T11:31:54.599Z,45.60
2023-05-19T11:34:57.675Z,44.96
2023-05-19T11:37:59.594Z,45.35
2023-05-19T11:41:01.561Z,44.99
2023-05-19T11:44:03.397Z,45.30
2023-05-19T11:47:05.912Z,45.04
2023-05-19T11:50:12.763Z,44.89
2023-05-19T11:53:16.589Z,44.10
2023-05-19T11:56:18.322Z,44.90
2023-05-19T11:59:32.763Z,44.91
2023-05-19T12:02:36.378Z,44.80
2023-05-19T12:05:44.922Z,44.38
2023-05-19T12:08:47.097Z,44.95
2023-05-19T12:11:49.902Z,45.29
2023-05-19T12:14:53.615Z,44.14
2023-05-19T12:18:00.569Z,42.90
2023-05-19T12:21:02.917Z,43.24
2023-05-19T12:24:06.115Z,43.28
2023-05-19T12:27:19.605Z,42.80
2023-05-19T12:30:29.024Z,42.37
2023-05-19T12:33:34.915Z,42.91
2023-05-19T12:36:41.449Z,42.54
2023-05-19T12:39:44.125Z,42.85
2023-05-19T12:42:46.282Z,43.05
2023-05-19T12:45:48.565Z,42.14
2023-05-19T12:48:50.956Z,41.38
2023-05-19T12:51:53.949Z,40.75
2023-05-19T12:55:14.783Z,40.25
2023-05-19T12:58:17.008Z,39.79
2023-05-19T13:01:18.936Z,39.57
2023-05-19T13:04:20.858Z,39.88
2023-05-19T13:07:22.621Z,39.73
2023-05-19T13:10:27.106Z,39.80
2023-05-19T13:13:29.138Z,40.13
2023-05-19T13:16:30.910Z,40.07
2023-05-19T13:19:32.910Z,40.10
2023-05-19T13:22:34.710Z,40.82
2023-05-19T13:25:36.872Z,41.02
2023-05-19T13:28:38.669Z,41.07
2023-05-19T13:31:40.526Z,41.10
2023-05-19T13:34:42.496Z,41.44
2023-05-19T13:37:44.774Z,41.13
2023-05-19T13:40:46.779Z,41.44
2023-05-19T13:43:48.498Z,41.15
2023-05-19T13:46:52.305Z,41.47
2023-05-19T13:49:54.312Z,41.25
2023-05-19T13:52:56.119Z,41.69
2023-05-19T13:55:57.911Z,41.40
2023-05-19T13:58:59.747Z,41.20
2023-05-19T14:02:02.961Z,40.59
2023-05-19T14:05:06.275Z,39.55
2023-05-19T14:08:08.095Z,39.01
2023-05-19T14:11:09.823Z,39.02
2023-05-19T14:14:11.791Z,38.46
2023-05-19T14:17:13.576Z,38.39
2023-05-19T14:20:15.522Z,38.36
2023-05-19T14:23:17.319Z,37.92
2023-05-19T14:26:19.829Z,37.22
2023-05-19T14:29:21.643Z,37.68
2023-05-19T14:32:23.589Z,38.36
2023-05-19T14:35:25.536Z,38.02
2023-05-19T14:38:27.665Z,37.73
2023-05-19T14:41:31.074Z,38.13
2023-05-19T14:44:33.262Z,38.70
2023-05-19T14:47:35.040Z,38.91
2023-05-19T14:50:36.818Z,39.41
2023-05-19T14:53:38.587Z,40.13
2023-05-19T14:56:40.395Z,40.47
2023-05-19T14:59:42.185Z,40.96
2023-05-19T15:02:44.174Z,41.44
2023-05-19T15:05:45.972Z,41.94
2023-05-19T15:08:47.818Z,42.41
2023-05-19T15:11:52.258Z,42.72
2023-05-19T15:14:54.013Z,43.41
2023-05-19T15:17:55.941Z,43.24
2023-05-19T15:20:57.733Z,43.33
2023-05-19T15:23:59.470Z,43.60
2023-05-19T15:27:01.878Z,43.66
2023-05-19T15:30:05.207Z,44.16
2023-05-19T15:33:07.043Z,44.33
2023-05-19T15:36:08.936Z,43.82
2023-05-19T15:39:10.846Z,43.94
2023-05-19T15:42:12.611Z,43.74
2023-05-19T15:45:14.510Z,43.35
2023-05-19T15:48:16.375Z,43.46
2023-05-19T15:51:18.166Z,42.97
2023-05-19T15:54:20.026Z,43.31
2023-05-19T15:57:21.819Z,43.74
2023-05-19T16:00:23.711Z,44.29
2023-05-19T16:03:25.790Z,44.33
2023-05-19T16:06:27.875Z,44.16
2023-05-19T16:09:29.644Z,44.31
2023-05-19T16:12:31.662Z,44.22
2023-05-19T16:15:33.474Z,44.03
2023-05-19T16:18:35.405Z,44.06
2023-05-19T16:21:37.121Z,44.39
2023-05-19T16:24:38.875Z,44.71
2023-05-19T16:27:40.618Z,44.17
2023-05-19T16:30:43.035Z,44.27
2023-05-19T16:33:44.850Z,44.78
2023-05-19T16:39:48.473Z,45.15
2023-05-19T16:42:52.871Z,45.50
2023-05-19T16:45:54.642Z,45.54
2023-05-19T16:48:56.514Z,45.48
2023-05-19T16:51:58.278Z,45.08
2023-05-19T16:55:00.039Z,45.40
2023-05-19T16:58:01.832Z,45.75
2023-05-19T17:01:04.211Z,45.98
2023-05-19T17:04:05.987Z,46.14
2023-05-19T17:07:07.813Z,46.08
2023-05-19T17:10:10.535Z,46.11
2023-05-19T17:13:12.536Z,46.21
2023-05-19T17:16:14.593Z,46.88
2023-05-19T17:19:16.917Z,46.85
2023-05-19T17:22:19.461Z,46.90
2023-05-19T17:25:21.436Z,46.72
2023-05-19T17:28:23.539Z,46.54
2023-05-19T17:31:25.245Z,46.48
2023-05-19T17:34:27.092Z,46.05
2023-05-19T17:37:29.098Z,46.35
2023-05-19T17:40:31.207Z,46.10
2023-05-19T17:43:33.055Z,46.14
2023-05-19T17:46:34.928Z,46.17
2023-05-19T17:49:36.724Z,46.29
2023-05-19T17:52:40.054Z,46.44
2023-05-19T17:55:43.967Z,46.65
2023-05-19T17:58:47.081Z,46.74
2023-05-19T18:01:49.046Z,46.79
2023-05-19T18:04:51.222Z,46.83
2023-05-19T18:07:54.235Z,47.26
2023-05-19T18:10:57.126Z,47.46
2023-05-19T18:13:58.850Z,47.62
2023-05-19T18:17:00.842Z,47.08
2023-05-19T18:20:02.904Z,47.23
2023-05-19T18:23:05.507Z,46.50
2023-05-19T18:26:07.438Z,46.47
2023-05-19T18:29:14.615Z,46.29
2023-05-19T18:32:17.767Z,46.58
2023-05-19T18:35:21.183Z,46.51
2023-05-19T18:38:25.882Z,46.97
2023-05-19T18:41:28.483Z,47.68
2023-05-19T18:44:30.241Z,48.78
2023-05-19T18:47:32.038Z,49.74
2023-05-19T18:50:34.405Z,50.47
2023-05-19T18:53:37.217Z,50.81
2023-05-19T18:56:39.300Z,51.23
2023-05-19T18:59:41.302Z,51.17
2023-05-19T19:02:43.164Z,51.75
2023-05-19T19:05:44.886Z,51.68
2023-05-19T19:08:47.376Z,52.37
2023-05-19T19:11:49.129Z,53.05
2023-05-19T19:14:51.272Z,53.47
2023-05-19T19:17:53.101Z,54.21
2023-05-19T19:20:57.403Z,54.76
2023-05-19T19:23:59.241Z,55.75
2023-05-19T19:27:01.174Z,56.71
2023-05-19T19:30:03.163Z,57.25
2023-05-19T19:33:06.724Z,57.91
2023-05-19T19:36:09.492Z,58.67
2023-05-19T19:39:13.060Z,59.15
2023-05-19T19:42:14.867Z,59.64
2023-05-19T19:45:17.928Z,60.16
2023-05-19T19:48:19.633Z,60.59
2023-05-19T19:51:21.384Z,60.74
2023-05-19T19:54:23.186Z,61.04
2023-05-19T19:57:25.008Z,61.17
2023-05-19T20:00:26.750Z,61.38
2023-05-19T20:03:29.196Z,61.62
2023-05-19T20:06:32.292Z,61.65
2023-05-19T20:09:34.046Z,61.75
2023-05-19T20:12:36.867Z,61.63
2023-05-19T20:15:39.063Z,61.81
2023-05-19T20:18:40.929Z,61.64
2023-05-19T20:21:42.722Z,62.18
2023-05-19T20:24:44.502Z,62.22
2023-05-19T20:27:46.277Z,62.13
2023-05-19T20:30:47.974Z,62.65
2023-05-19T20:33:50.318Z,62.68
2023-05-19T20:36:52.072Z,62.94
2023-05-19T20:39:54.051Z,63.11
2023-05-19T20:42:55.802Z,63.15
2023-05-19T20:45:57.548Z,63.26
2023-05-19T20:48:59.344Z,63.49
2023-05-19T20:52:01.381Z,63.34
2023-05-19T20:55:03.334Z,63.16
2023-05-19T20:58:05.130Z,63.59
2023-05-19T21:01:06.912Z,63.88
2023-05-19T21:04:08.755Z,63.93
2023-05-19T21:07:10.562Z,63.70
2023-05-19T21:10:14.524Z,64.09
2023-05-19T21:13:17.952Z,63.92
2023-05-19T21:16:20.119Z,64.25
2023-05-19T21:19:22.998Z,63.87
2023-05-19T21:22:25.656Z,63.95
2023-05-19T21:25:27.967Z,64.32
2023-05-19T21:28:30.130Z,64.44
2023-05-19T21:31:32.157Z,64.56
2023-05-19T21:34:34.146Z,64.88
2023-05-19T21:37:36.495Z,64.82
2023-05-19T21:40:38.252Z,65.22
2023-05-19T21:43:42.083Z,65.43
2023-05-19T21:46:44.030Z,65.49
2023-05-19T21:49:45.795Z,65.63
2023-05-19T21:52:47.559Z,65.64
2023-05-19T21:55:49.581Z,65.62
2023-05-19T21:58:51.662Z,66.08
2023-05-19T22:01:53.537Z,65.75
2023-05-19T22:04:55.291Z,66.23
2023-05-19T22:07:57.044Z,66.13
2023-05-19T22:10:58.782Z,66.56
2023-05-19T22:14:00.539Z,66.61
2023-05-19T22:17:02.281Z,66.39
2023-05-19T22:20:04.440Z,66.63
2023-05-19T22:23:06.271Z,66.74
2023-05-19T22:26:08.011Z,66.41
2023-05-19T22:29:15.111Z,66.57
2023-05-19T22:32:18.442Z,66.57
2023-05-19T22:35:20.248Z,66.54
2023-05-19T22:38:22.003Z,66.55
2023-05-19T22:41:23.888Z,66.58
2023-05-19T22:44:25.615Z,66.66
2023-05-19T22:47:27.466Z,67.11
2023-05-19T22:50:29.272Z,66.63
2023-05-19T22:53:31.106Z,66.94
2023-05-19T22:56:32.850Z,67.15
2023-05-19T22:59:35.680Z,67.21
2023-05-19T23:02:37.577Z,67.61
2023-05-19T23:05:40.257Z,67.58
2023-05-19T23:08:42.120Z,67.59
2023-05-19T23:11:44.660Z,67.83
2023-05-19T23:14:46.426Z,67.86
2023-05-19T23:17:48.169Z,68.07
2023-05-19T23:20:49.984Z,68.21
2023-05-19T23:23:52.061Z,68.19
2023-05-19T23:26:54.260Z,68.47
2023-05-19T23:29:56.025Z,68.43
2023-05-19T23:32:57.842Z,68.39
2023-05-19T23:35:59.859Z,68.63
2023-05-19T23:39:01.615Z,68.93
2023-05-19T23:42:03.555Z,68.93
2023-05-19T23:45:06.025Z,69.25
2023-05-19T23:48:07.891Z,68.87
2023-05-19T23:51:09.745Z,69.41
2023-05-19T23:54:11.580Z,69.60
2023-05-19T23:57:13.412Z,69.61
